createdAt,value
2022-08-07T00:00:28.796Z,49.40
2022-08-07T00:02:58.682Z,49.22
2022-08-07T00:05:30.159Z,49.40
2022-08-07T00:08:01.996Z,49.81
2022-08-07T00:10:32.398Z,49.94
2022-08-07T00:13:23.638Z,50.01
2022-08-07T00:15:54.089Z,50.20
2022-08-07T00:18:26.414Z,49.90
2022-08-07T00:21:01.686Z,50.05
2022-08-07T00:23:32.376Z,50.43
2022-08-07T00:26:12.835Z,50.15
2022-08-07T00:28:45.912Z,49.93
2022-08-07T00:31:38.071Z,49.89
2022-08-07T00:34:11.452Z,49.99
2022-08-07T00:36:42.715Z,49.98
2022-08-07T00:39:16.503Z,49.83
2022-08-07T00:42:01.712Z,49.72
2022-08-07T00:44:35.287Z,49.60
2022-08-07T00:47:15.845Z,49.63
2022-08-07T00:50:21.290Z,49.70
2022-08-07T00:52:53.070Z,49.70
2022-08-07T00:55:25.547Z,49.80
2022-08-07T00:58:13.560Z,49.88
2022-08-07T01:00:51.387Z,49.85
2022-08-07T01:03:54.823Z,49.87
2022-08-07T01:06:14.473Z,49.99
2022-08-07T01:08:52.994Z,50.05
2022-08-07T01:12:23.866Z,50.21
2022-08-07T01:14:15.471Z,50.35
2022-08-07T01:16:48.073Z,50.30
2022-08-07T01:19:20.225Z,50.57
2022-08-07T01:21:55.353Z,50.63
2022-08-07T01:24:32.283Z,50.58
2022-08-07T01:27:04.451Z,50.38
2022-08-07T01:29:35.132Z,50.40
2022-08-07T01:32:13.384Z,50.33
2022-08-07T01:34:49.213Z,50.46
2022-08-07T01:37:20.125Z,50.31
2022-08-07T01:39:52.591Z,50.18
2022-08-07T01:42:38.537Z,50.04
2022-08-07T01:45:18.196Z,49.78
2022-08-07T01:48:18.213Z,49.83
2022-08-07T01:50:44.010Z,49.67
2022-08-07T01:53:21.136Z,49.92
2022-08-07T01:56:00.106Z,49.55
2022-08-07T01:58:33.498Z,49.76
2022-08-07T02:01:25.689Z,49.92
2022-08-07T02:04:07.345Z,49.90
2022-08-07T02:06:38.018Z,49.90
2022-08-07T02:09:11.745Z,50.05
2022-08-07T02:12:17.610Z,49.98
2022-08-07T02:14:56.811Z,49.96
2022-08-07T02:17:39.034Z,49.87
2022-08-07T02:20:17.516Z,49.84
2022-08-07T02:22:55.029Z,49.54
2022-08-07T02:26:10.480Z,49.54
2022-08-07T02:28:25.436Z,49.49
2022-08-07T02:30:59.466Z,49.56
2022-08-07T02:33:57.159Z,49.50
2022-08-07T02:36:32.280Z,49.39
2022-08-07T02:39:17.342Z,49.43
2022-08-07T02:42:01.022Z,49.37
2022-08-07T02:44:34.322Z,49.25
2022-08-07T02:47:07.095Z,49.32
2022-08-07T02:49:58.143Z,49.14
2022-08-07T02:52:32.212Z,49.12
2022-08-07T02:55:04.934Z,48.99
2022-08-07T02:57:55.593Z,48.97
2022-08-07T03:00:27.619Z,49.38
2022-08-07T03:03:00.459Z,49.27
2022-08-07T03:05:37.966Z,49.05
2022-08-07T03:08:10.247Z,48.85
2022-08-07T03:10:47.090Z,48.75
2022-08-07T03:13:21.729Z,48.28
2022-08-07T03:15:56.463Z,48.21
2022-08-07T03:18:34.555Z,48.52
2022-08-07T03:21:08.664Z,48.60
2022-08-07T03:24:18.102Z,48.66
2022-08-07T03:26:33.719Z,48.41
2022-08-07T03:29:10.992Z,48.45
2022-08-07T03:31:46.443Z,47.95
2022-08-07T03:34:22.217Z,48.06
2022-08-07T03:36:57.344Z,47.92
2022-08-07T03:39:59.803Z,48.20
2022-08-07T03:42:18.885Z,47.92
2022-08-07T03:44:53.694Z,47.76
2022-08-07T03:47:29.598Z,47.71
2022-08-07T03:50:23.304Z,47.65
2022-08-07T03:52:54.847Z,47.33
2022-08-07T03:55:52.743Z,47.61
2022-08-07T03:59:06.699Z,47.83
2022-08-07T04:01:07.539Z,47.26
2022-08-07T04:03:53.706Z,47.32
2022-08-07T04:06:37.886Z,47.30
2022-08-07T04:09:16.063Z,47.31
2022-08-07T04:12:27.851Z,46.96
2022-08-07T04:14:45.999Z,47.18
2022-08-07T04:17:21.199Z,47.09
2022-08-07T04:19:56.884Z,46.91
2022-08-07T04:22:29.786Z,46.58
2022-08-07T04:25:03.358Z,46.45
2022-08-07T04:27:44.346Z,46.28
2022-08-07T04:30:35.855Z,46.18
2022-08-07T04:33:35.374Z,45.95
2022-08-07T04:36:09.120Z,45.75
2022-08-07T04:38:39.418Z,45.92
2022-08-07T04:41:10.286Z,45.93
2022-08-07T04:44:13.003Z,45.93
2022-08-07T04:47:04.503Z,45.81
2022-08-07T04:49:40.397Z,45.73
2022-08-07T04:52:14.280Z,45.40
2022-08-07T04:54:50.651Z,45.39
2022-08-07T04:58:13.255Z,45.74
2022-08-07T05:00:18.931Z,45.83
2022-08-07T05:03:17.302Z,45.58
2022-08-07T05:05:59.961Z,45.71
2022-08-07T05:08:59.672Z,45.65
2022-08-07T05:11:58.349Z,45.75
2022-08-07T05:14:53.262Z,45.71
2022-08-07T05:17:50.349Z,45.75
2022-08-07T05:20:09.831Z,45.89
2022-08-07T05:22:41.701Z,46.07
2022-08-07T05:25:25.602Z,45.93
2022-08-07T05:28:20.345Z,45.76
2022-08-07T05:30:52.561Z,45.45
2022-08-07T05:33:23.159Z,45.37
2022-08-07T05:35:55.313Z,45.10
2022-08-07T05:39:00.225Z,44.91
2022-08-07T05:41:16.987Z,44.86
2022-08-07T05:44:08.272Z,45.03
2022-08-07T05:46:43.210Z,44.74
2022-08-07T05:49:14.580Z,44.55
2022-08-07T05:51:47.616Z,44.29
2022-08-07T05:54:30.878Z,43.99
2022-08-07T05:57:13.391Z,44.16
2022-08-07T05:59:55.775Z,44.12
2022-08-07T06:02:29.618Z,43.98
2022-08-07T06:05:04.018Z,44.14
2022-08-07T06:08:14.033Z,43.76
2022-08-07T06:10:25.707Z,43.52
2022-08-07T06:12:56.118Z,43.34
2022-08-07T06:15:39.292Z,43.37
2022-08-07T06:18:14.740Z,42.78
2022-08-07T06:20:50.511Z,43.14
2022-08-07T06:23:46.558Z,43.11
2022-08-07T06:26:27.925Z,42.76
2022-08-07T06:29:01.267Z,42.52
2022-08-07T06:31:46.936Z,42.29
2022-08-07T06:34:28.042Z,42.61
2022-08-07T06:36:59.794Z,42.77
2022-08-07T06:40:16.978Z,42.80
2022-08-07T06:42:34.866Z,42.06
2022-08-07T06:45:30.490Z,41.71
2022-08-07T06:48:03.618Z,41.34
2022-08-07T06:50:43.215Z,41.17
2022-08-07T06:53:18.567Z,41.12
2022-08-07T06:56:04.221Z,40.48
2022-08-07T06:58:39.538Z,40.29
2022-08-07T07:01:33.202Z,40.60
2022-08-07T07:04:32.220Z,39.69
2022-08-07T07:07:10.737Z,39.52
2022-08-07T07:09:57.301Z,39.39
2022-08-07T07:12:33.673Z,39.36
2022-08-07T07:15:09.019Z,38.65
2022-08-07T07:17:56.620Z,38.81
2022-08-07T07:20:29.350Z,39.07
2022-08-07T07:24:10.247Z,38.77
2022-08-07T07:26:35.320Z,39.01
2022-08-07T07:29:28.577Z,39.00
2022-08-07T07:31:44.237Z,39.15
2022-08-07T07:34:15.732Z,38.73
2022-08-07T07:36:47.985Z,38.86
2022-08-07T07:39:25.835Z,38.96
2022-08-07T07:42:19.756Z,38.63
2022-08-07T07:44:51.026Z,38.44
2022-08-07T07:47:23.868Z,38.43
2022-08-07T07:50:33.020Z,38.57
2022-08-07T07:52:46.877Z,38.55
2022-08-07T07:55:17.343Z,37.30
2022-08-07T07:57:52.927Z,37.60
2022-08-07T08:00:31.437Z,37.52
2022-08-07T08:03:08.250Z,37.31
2022-08-07T08:05:51.121Z,36.70
2022-08-07T08:08:34.528Z,35.91
2022-08-07T08:11:05.956Z,36.30
2022-08-07T08:13:53.050Z,36.79
2022-08-07T08:16:30.079Z,35.60
2022-08-07T08:19:18.215Z,34.97
2022-08-07T08:22:09.745Z,35.23
2022-08-07T08:25:18.848Z,35.43
2022-08-07T08:27:56.902Z,35.43
2022-08-07T08:30:32.300Z,34.92
2022-08-07T08:33:05.694Z,34.92
2022-08-07T08:35:49.741Z,34.97
2022-08-07T08:38:22.058Z,34.48
2022-08-07T08:41:00.281Z,34.83
2022-08-07T08:43:42.094Z,34.67
2022-08-07T08:46:14.412Z,35.10
2022-08-07T08:48:46.899Z,35.49
2022-08-07T08:51:22.413Z,34.70
2022-08-07T08:54:11.713Z,34.49
2022-08-07T08:56:47.166Z,34.31
2022-08-07T08:59:19.119Z,34.18
2022-08-07T09:01:51.513Z,33.76
2022-08-07T09:04:25.766Z,33.21
2022-08-07T09:06:59.707Z,33.11
2022-08-07T09:09:41.226Z,32.69
2022-08-07T09:12:30.366Z,32.10
2022-08-07T09:16:23.409Z,32.23
2022-08-07T09:18:06.000Z,31.95
2022-08-07T09:20:58.074Z,31.61
2022-08-07T09:24:52.476Z,31.13
2022-08-07T09:26:28.953Z,30.54
2022-08-07T09:30:01.206Z,30.33
2022-08-07T09:31:53.063Z,30.25
2022-08-07T09:34:27.294Z,30.54
2022-08-07T09:37:00.296Z,30.32
2022-08-07T09:39:54.076Z,29.47
2022-08-07T09:42:36.204Z,29.04
2022-08-07T09:47:25.642Z,28.67
2022-08-07T09:48:05.216Z,28.13
2022-08-07T09:50:41.211Z,28.09
2022-08-07T09:53:13.515Z,27.63
2022-08-07T09:56:02.760Z,27.43
2022-08-07T09:58:48.824Z,28.00
2022-08-07T10:01:51.796Z,27.47
2022-08-07T10:04:33.072Z,25.95
2022-08-07T10:07:25.875Z,25.70
2022-08-07T10:10:06.496Z,25.69
2022-08-07T10:12:53.096Z,25.68
2022-08-07T10:15:30.299Z,25.80
2022-08-07T10:18:18.707Z,25.38
2022-08-07T10:20:53.458Z,25.08
2022-08-07T10:24:06.854Z,25.24
2022-08-07T10:26:34.060Z,24.73
2022-08-07T10:29:15.295Z,24.97
2022-08-07T10:31:52.303Z,24.28
2022-08-07T10:34:31.873Z,24.51
2022-08-07T10:37:05.909Z,24.41
2022-08-07T10:40:03.309Z,24.16
2022-08-07T10:42:38.764Z,24.39
2022-08-07T10:45:13.897Z,25.16
2022-08-07T10:47:54.426Z,24.40
2022-08-07T10:50:26.596Z,24.42
2022-08-07T10:53:05.406Z,24.61
2022-08-07T10:55:41.799Z,24.33
2022-08-07T10:58:33.284Z,25.09
2022-08-07T11:01:15.579Z,25.38
2022-08-07T11:03:54.893Z,24.45
2022-08-07T11:06:30.651Z,24.68
2022-08-07T11:09:02.758Z,24.87
2022-08-07T11:11:35.601Z,24.12
2022-08-07T11:14:43.411Z,24.31
2022-08-07T11:17:01.755Z,24.42
2022-08-07T11:19:34.552Z,23.13
2022-08-07T11:22:18.837Z,22.36
2022-08-07T11:24:52.053Z,22.43
2022-08-07T11:27:33.517Z,22.86
2022-08-07T11:30:18.415Z,23.16
2022-08-07T11:32:52.849Z,23.91
2022-08-07T11:35:26.980Z,23.49
2022-08-07T11:38:12.629Z,23.42
2022-08-07T11:40:49.440Z,23.21
2022-08-07T11:43:29.465Z,23.72
2022-08-07T11:46:13.685Z,23.24
2022-08-07T11:49:27.828Z,23.51
2022-08-07T11:51:55.236Z,23.52
2022-08-07T11:54:40.241Z,23.59
2022-08-07T11:57:26.315Z,23.26
2022-08-07T12:00:19.602Z,23.16
2022-08-07T12:03:44.934Z,23.19
2022-08-07T12:06:37.228Z,23.17
2022-08-07T12:09:00.294Z,22.92
2022-08-07T12:11:35.649Z,22.85
2022-08-07T12:14:15.284Z,23.22
2022-08-07T12:16:50.137Z,22.90
2022-08-07T12:19:22.022Z,22.85
2022-08-07T12:22:35.838Z,23.62
2022-08-07T12:25:08.036Z,23.71
2022-08-07T12:28:08.486Z,23.51
2022-08-07T12:30:29.496Z,23.34
2022-08-07T12:33:01.892Z,23.35
2022-08-07T12:35:48.079Z,22.97
2022-08-07T12:38:36.739Z,23.44
2022-08-07T12:41:13.406Z,23.89
2022-08-07T12:44:02.110Z,23.31
2022-08-07T12:46:37.297Z,22.57
2022-08-07T12:49:40.161Z,23.00
2022-08-07T12:52:14.501Z,23.28
2022-08-07T12:54:54.653Z,23.46
2022-08-07T12:57:26.953Z,23.19
2022-08-07T13:00:16.445Z,23.04
2022-08-07T13:03:09.639Z,22.99
2022-08-07T13:06:02.847Z,23.13
2022-08-07T13:08:43.293Z,23.19
2022-08-07T13:11:20.249Z,23.05
2022-08-07T13:13:57.437Z,22.99
2022-08-07T13:16:36.798Z,23.03
2022-08-07T13:19:18.170Z,22.78
2022-08-07T13:22:02.020Z,23.02
2022-08-07T13:24:38.655Z,23.08
2022-08-07T13:27:22.876Z,23.77
2022-08-07T13:30:05.909Z,23.55
2022-08-07T13:32:50.351Z,23.35
2022-08-07T13:35:24.313Z,23.68
2022-08-07T13:38:15.715Z,23.46
2022-08-07T13:40:49.273Z,23.43
2022-08-07T13:43:21.595Z,23.47
2022-08-07T13:46:10.432Z,23.78
2022-08-07T13:48:51.792Z,23.88
2022-08-07T13:52:19.083Z,23.64
2022-08-07T13:54:22.645Z,23.82
2022-08-07T13:56:59.590Z,24.24
2022-08-07T13:59:33.502Z,24.00
2022-08-07T14:02:10.184Z,23.83
2022-08-07T14:04:50.229Z,24.06
2022-08-07T14:07:25.217Z,23.57
2022-08-07T14:10:01.490Z,23.60
2022-08-07T14:12:36.304Z,23.52
2022-08-07T14:15:13.305Z,23.73
2022-08-07T14:18:27.366Z,23.71
2022-08-07T14:20:42.160Z,23.52
2022-08-07T14:23:18.051Z,23.52
2022-08-07T14:26:09.040Z,23.12
2022-08-07T14:29:05.936Z,23.03
2022-08-07T14:31:58.076Z,23.07
2022-08-07T14:34:30.785Z,23.38
2022-08-07T14:37:03.363Z,23.46
2022-08-07T14:40:14.587Z,22.96
2022-08-07T14:48:08.537Z,23.66
2022-08-07T14:50:51.010Z,23.85
2022-08-07T14:54:06.623Z,23.99
2022-08-07T14:56:13.982Z,24.30
2022-08-07T14:58:44.620Z,24.53
2022-08-07T15:01:22.022Z,24.76
2022-08-07T15:03:53.529Z,24.90
2022-08-07T15:06:27.150Z,25.11
2022-08-07T15:08:57.214Z,25.21
2022-08-07T15:13:06.525Z,24.96
2022-08-07T15:14:19.067Z,24.98
2022-08-07T15:16:54.861Z,25.04
2022-08-07T15:20:31.381Z,24.73
2022-08-07T15:25:17.038Z,24.62
2022-08-07T15:28:32.452Z,24.77
2022-08-07T15:30:59.540Z,25.07
2022-08-07T15:33:34.035Z,24.89
2022-08-07T15:36:07.998Z,25.23
2022-08-07T15:38:59.277Z,25.46
2022-08-07T15:44:20.437Z,25.44
2022-08-07T15:46:52.894Z,25.57
2022-08-07T15:49:25.227Z,25.62
2022-08-07T15:54:34.042Z,25.85
2022-08-07T15:57:04.728Z,26.29
2022-08-07T15:59:39.909Z,26.40
2022-08-07T16:02:15.717Z,26.59
2022-08-07T16:04:46.183Z,26.79
2022-08-07T16:08:32.378Z,26.84
2022-08-07T16:10:14.669Z,27.03
2022-08-07T16:13:01.134Z,27.31
2022-08-07T16:15:56.397Z,27.48
2022-08-07T16:18:50.242Z,27.75
2022-08-07T16:21:53.762Z,27.95
2022-08-07T16:24:34.451Z,28.14
2022-08-07T16:27:17.888Z,28.33
2022-08-07T16:30:10.657Z,28.43
2022-08-07T16:32:54.487Z,28.66
2022-08-07T16:35:56.345Z,28.78
2022-08-07T16:39:00.591Z,28.95
2022-08-07T16:41:54.382Z,29.01
2022-08-07T16:44:47.466Z,29.12
2022-08-07T16:47:49.590Z,29.35
2022-08-07T16:50:37.113Z,29.21
2022-08-07T16:53:48.045Z,29.70
2022-08-07T16:56:11.663Z,29.75
2022-08-07T16:59:14.793Z,29.96
2022-08-07T17:01:41.044Z,30.23
2022-08-07T17:04:24.809Z,30.66
2022-08-07T17:07:04.087Z,31.31
2022-08-07T17:10:06.125Z,32.02
2022-08-07T17:12:39.836Z,31.99
2022-08-07T17:15:19.635Z,32.07
2022-08-07T17:17:54.177Z,32.30
2022-08-07T17:20:31.054Z,32.26
2022-08-07T17:23:11.425Z,33.04
2022-08-07T17:25:51.879Z,32.74
2022-08-07T17:28:24.948Z,33.64
2022-08-07T17:31:16.157Z,33.28
2022-08-07T17:34:15.274Z,32.94
2022-08-07T17:36:57.476Z,32.78
2022-08-07T17:39:58.834Z,32.89
2022-08-07T17:42:35.032Z,32.90
2022-08-07T17:45:14.872Z,32.82
2022-08-07T17:47:46.387Z,32.96
2022-08-07T17:50:30.479Z,32.90
2022-08-07T17:53:05.847Z,32.81
2022-08-07T17:55:56.570Z,32.95
2022-08-07T17:58:33.732Z,33.18
2022-08-07T18:01:20.761Z,33.61
2022-08-07T18:04:07.578Z,33.91
2022-08-07T18:06:43.100Z,33.86
2022-08-07T18:09:16.063Z,33.79
2022-08-07T18:12:16.702Z,33.99
2022-08-07T18:14:46.140Z,34.05
2022-08-07T18:18:46.908Z,34.24
2022-08-07T18:21:09.470Z,34.54
2022-08-07T18:23:42.036Z,35.39
2022-08-07T18:26:05.448Z,35.18
2022-08-07T18:28:57.846Z,35.04
2022-08-07T18:31:38.809Z,34.64
2022-08-07T18:34:37.467Z,34.02
2022-08-07T18:37:09.309Z,33.95
2022-08-07T18:40:07.973Z,34.40
2022-08-07T18:42:41.144Z,34.63
2022-08-07T18:45:44.209Z,35.26
2022-08-07T18:48:07.376Z,35.77
2022-08-07T18:50:50.186Z,35.90
2022-08-07T18:53:36.610Z,36.16
2022-08-07T18:56:13.852Z,36.43
2022-08-07T18:58:51.399Z,36.82
2022-08-07T19:02:19.351Z,37.02
2022-08-07T19:04:37.205Z,36.92
2022-08-07T19:07:17.897Z,36.76
2022-08-07T19:09:56.002Z,36.63
2022-08-07T19:12:32.164Z,36.61
2022-08-07T19:16:02.836Z,36.73
2022-08-07T19:18:02.344Z,36.73
2022-08-07T19:21:09.204Z,37.25
2022-08-07T19:23:58.537Z,37.91
2022-08-07T19:26:29.299Z,37.71
2022-08-07T19:31:05.416Z,37.99
2022-08-07T19:32:07.815Z,37.72
2022-08-07T19:34:47.883Z,37.85
2022-08-07T19:37:18.219Z,37.81
2022-08-07T19:39:57.186Z,37.82
2022-08-07T19:42:40.529Z,37.87
2022-08-07T19:45:53.076Z,38.05
2022-08-07T19:48:18.999Z,38.30
2022-08-07T19:50:54.786Z,38.51
2022-08-07T19:54:32.246Z,38.72
2022-08-07T19:58:01.917Z,38.99
2022-08-07T19:59:12.095Z,39.27
2022-08-07T20:01:55.900Z,39.40
2022-08-07T20:04:31.262Z,39.46
2022-08-07T20:07:02.419Z,39.86
2022-08-07T20:10:36.476Z,40.24
2022-08-07T20:12:32.186Z,40.32
2022-08-07T20:15:09.571Z,40.37
2022-08-07T20:17:46.119Z,40.61
2022-08-07T20:20:32.921Z,40.73
2022-08-07T20:23:23.256Z,40.75
2022-08-07T20:25:55.260Z,40.69
2022-08-07T20:28:29.597Z,40.73
2022-08-07T20:31:00.361Z,40.65
2022-08-07T20:33:37.658Z,40.68
2022-08-07T20:36:10.123Z,41.18
2022-08-07T20:38:53.338Z,41.46
2022-08-07T20:41:34.000Z,41.59
2022-08-07T20:44:12.401Z,41.58
2022-08-07T20:46:45.469Z,41.75
2022-08-07T20:50:00.920Z,41.91
2022-08-07T20:52:14.295Z,41.75
2022-08-07T20:54:53.460Z,41.98
2022-08-07T20:57:25.418Z,41.98
2022-08-07T21:00:07.973Z,42.08
2022-08-07T21:02:58.734Z,42.27
2022-08-07T21:05:51.260Z,42.28
2022-08-07T21:08:36.941Z,42.53
2022-08-07T21:11:10.963Z,42.73
2022-08-07T21:13:57.446Z,42.94
2022-08-07T21:16:35.239Z,42.97
2022-08-07T21:19:09.088Z,43.18
2022-08-07T21:21:49.149Z,43.32
2022-08-07T21:24:30.676Z,43.54
2022-08-07T21:27:02.458Z,43.75
2022-08-07T21:29:39.350Z,43.91
2022-08-07T21:32:47.010Z,43.99
2022-08-07T21:35:01.440Z,44.11
2022-08-07T21:37:58.636Z,44.24
2022-08-07T21:40:29.244Z,44.26
2022-08-07T21:43:10.718Z,44.52
2022-08-07T21:46:08.751Z,44.72
2022-08-07T21:48:39.704Z,44.86
2022-08-07T21:51:19.313Z,45.00
2022-08-07T21:53:52.749Z,45.49
2022-08-07T21:56:37.858Z,45.83
2022-08-07T21:59:11.371Z,45.87
2022-08-07T22:02:11.222Z,46.17
2022-08-07T22:04:36.988Z,46.78
2022-08-07T22:07:09.003Z,47.05
2022-08-07T22:09:54.324Z,47.43
2022-08-07T22:12:31.522Z,47.70
2022-08-07T22:15:04.104Z,47.89
2022-08-07T22:17:56.520Z,47.88
2022-08-07T22:20:31.105Z,47.91
2022-08-07T22:23:06.613Z,48.49
2022-08-07T22:25:43.304Z,48.48
2022-08-07T22:28:30.868Z,48.50
2022-08-07T22:31:05.499Z,48.48
2022-08-07T22:33:53.364Z,48.81
2022-08-07T22:36:33.928Z,48.76
2022-08-07T22:39:05.134Z,48.71
2022-08-07T22:42:03.119Z,48.63
2022-08-07T22:44:29.565Z,48.87
2022-08-07T22:47:17.690Z,49.24
2022-08-07T22:49:55.000Z,49.59
2022-08-07T22:52:40.159Z,49.76
2022-08-07T22:55:35.132Z,50.04
2022-08-07T22:58:10.362Z,49.84
2022-08-07T23:00:45.020Z,49.47
2022-08-07T23:03:28.766Z,50.55
2022-08-07T23:06:08.405Z,50.92
2022-08-07T23:08:55.733Z,51.06
2022-08-07T23:11:41.355Z,51.10
2022-08-07T23:14:38.978Z,51.13
2022-08-07T23:17:20.398Z,51.14
2022-08-07T23:20:10.638Z,51.26
2022-08-07T23:22:45.137Z,51.37
2022-08-07T23:25:21.074Z,51.59
2022-08-07T23:28:20.059Z,51.91
2022-08-07T23:31:06.616Z,52.20
2022-08-07T23:34:23.925Z,52.49
2022-08-07T23:36:38.184Z,52.92
2022-08-07T23:39:15.817Z,53.61
2022-08-07T23:42:04.314Z,54.01
2022-08-07T23:44:55.475Z,54.53
2022-08-07T23:47:31.049Z,55.21
2022-08-07T23:50:19.317Z,55.48
2022-08-07T23:53:01.713Z,55.93
2022-08-07T23:55:52.638Z,55.36
2022-08-07T23:58:26.042Z,55.92
